sensor_id;sensor_type;location;lat;lon;timestamp;P1;durP1;ratioP1;P2;durP2;ratioP2
13443;SDS011;6794;59.218;18.218;2022-12-10T00:01:41;9.23;;;4.22;;
13443;SDS011;6794;59.218;18.218;2022-12-10T00:04:07;5.17;;;3.57;;
13443;SDS011;6794;59.218;18.218;2022-12-10T00:06:34;6.17;;;3.43;;
13443;SDS011;6794;59.218;18.218;2022-12-10T00:09:01;6.57;;;3.57;;
13443;SDS011;6794;59.218;18.218;2022-12-10T00:11:27;3.30;;;3.00;;
13443;SDS011;6794;59.218;18.218;2022-12-10T00:13:53;4.27;;;3.27;;
13443;SDS011;6794;59.218;18.218;2022-12-10T00:16:20;4.20;;;3.35;;
13443;SDS011;6794;59.218;18.218;2022-12-10T00:18:47;4.47;;;3.05;;
13443;SDS011;6794;59.218;18.218;2022-12-10T00:21:14;5.05;;;3.08;;
13443;SDS011;6794;59.218;18.218;2022-12-10T00:23:41;4.43;;;3.00;;
13443;SDS011;6794;59.218;18.218;2022-12-10T00:26:09;4.23;;;2.73;;
13443;SDS011;6794;59.218;18.218;2022-12-10T00:28:36;3.58;;;2.95;;
13443;SDS011;6794;59.218;18.218;2022-12-10T00:31:03;4.63;;;3.50;;
13443;SDS011;6794;59.218;18.218;2022-12-10T00:33:29;8.95;;;3.70;;
13443;SDS011;6794;59.218;18.218;2022-12-10T00:35:55;5.83;;;3.97;;
13443;SDS011;6794;59.218;18.218;2022-12-10T00:38:21;6.22;;;4.50;;
13443;SDS011;6794;59.218;18.218;2022-12-10T00:40:47;6.63;;;4.90;;
13443;SDS011;6794;59.218;18.218;2022-12-10T00:43:13;4.20;;;3.10;;
13443;SDS011;6794;59.218;18.218;2022-12-10T00:45:39;3.83;;;2.57;;
13443;SDS011;6794;59.218;18.218;2022-12-10T00:48:05;4.88;;;3.10;;
13443;SDS011;6794;59.218;18.218;2022-12-10T00:50:31;4.60;;;3.35;;
13443;SDS011;6794;59.218;18.218;2022-12-10T00:52:57;4.43;;;3.20;;
13443;SDS011;6794;59.218;18.218;2022-12-10T00:55:23;5.70;;;3.20;;
13443;SDS011;6794;59.218;18.218;2022-12-10T00:57:49;5.33;;;3.57;;
13443;SDS011;6794;59.218;18.218;2022-12-10T01:00:15;5.50;;;3.73;;
13443;SDS011;6794;59.218;18.218;2022-12-10T01:02:41;5.70;;;4.18;;
13443;SDS011;6794;59.218;18.218;2022-12-10T01:05:07;7.07;;;4.93;;
13443;SDS011;6794;59.218;18.218;2022-12-10T01:07:33;6.82;;;3.97;;
13443;SDS011;6794;59.218;18.218;2022-12-10T01:09:59;5.23;;;3.57;;
13443;SDS011;6794;59.218;18.218;2022-12-10T01:12:25;7.30;;;4.37;;
13443;SDS011;6794;59.218;18.218;2022-12-10T01:14:51;6.33;;;4.20;;
13443;SDS011;6794;59.218;18.218;2022-12-10T01:17:17;6.33;;;3.90;;
13443;SDS011;6794;59.218;18.218;2022-12-10T01:19:45;6.60;;;3.88;;
13443;SDS011;6794;59.218;18.218;2022-12-10T01:22:11;6.50;;;4.78;;
13443;SDS011;6794;59.218;18.218;2022-12-10T01:24:37;8.95;;;6.63;;
13443;SDS011;6794;59.218;18.218;2022-12-10T01:27:03;6.38;;;4.35;;
13443;SDS011;6794;59.218;18.218;2022-12-10T01:29:30;7.07;;;5.27;;
13443;SDS011;6794;59.218;18.218;2022-12-10T01:31:56;7.25;;;4.50;;
13443;SDS011;6794;59.218;18.218;2022-12-10T01:34:22;4.17;;;2.93;;
13443;SDS011;6794;59.218;18.218;2022-12-10T01:36:49;6.22;;;3.70;;
13443;SDS011;6794;59.218;18.218;2022-12-10T01:39:16;4.97;;;3.80;;
13443;SDS011;6794;59.218;18.218;2022-12-10T01:41:47;6.07;;;3.90;;
13443;SDS011;6794;59.218;18.218;2022-12-10T01:46:40;5.03;;;3.53;;
13443;SDS011;6794;59.218;18.218;2022-12-10T01:49:11;5.03;;;3.73;;
13443;SDS011;6794;59.218;18.218;2022-12-10T01:51:38;6.45;;;3.50;;
13443;SDS011;6794;59.218;18.218;2022-12-10T01:54:07;6.28;;;3.47;;
13443;SDS011;6794;59.218;18.218;2022-12-10T01:56:37;4.55;;;3.95;;
13443;SDS011;6794;59.218;18.218;2022-12-10T01:59:04;6.05;;;4.15;;
13443;SDS011;6794;59.218;18.218;2022-12-10T02:01:39;6.25;;;4.47;;
13443;SDS011;6794;59.218;18.218;2022-12-10T02:06:54;6.15;;;4.10;;
13443;SDS011;6794;59.218;18.218;2022-12-10T02:14:38;5.13;;;3.67;;
13443;SDS011;6794;59.218;18.218;2022-12-10T02:17:23;7.87;;;4.30;;
13443;SDS011;6794;59.218;18.218;2022-12-10T02:19:58;7.67;;;4.47;;
13443;SDS011;6794;59.218;18.218;2022-12-10T02:22:28;4.97;;;3.73;;
13443;SDS011;6794;59.218;18.218;2022-12-10T02:24:55;6.93;;;3.73;;
13443;SDS011;6794;59.218;18.218;2022-12-10T02:27:25;6.83;;;4.67;;
13443;SDS011;6794;59.218;18.218;2022-12-10T02:29:53;6.63;;;3.70;;
13443;SDS011;6794;59.218;18.218;2022-12-10T02:32:22;6.28;;;3.78;;
13443;SDS011;6794;59.218;18.218;2022-12-10T02:34:50;6.27;;;4.13;;
13443;SDS011;6794;59.218;18.218;2022-12-10T02:37:21;4.87;;;3.93;;
13443;SDS011;6794;59.218;18.218;2022-12-10T02:39:48;5.03;;;3.60;;
13443;SDS011;6794;59.218;18.218;2022-12-10T02:42:16;6.30;;;4.40;;
13443;SDS011;6794;59.218;18.218;2022-12-10T02:44:43;5.57;;;4.30;;
13443;SDS011;6794;59.218;18.218;2022-12-10T02:47:11;5.37;;;4.00;;
13443;SDS011;6794;59.218;18.218;2022-12-10T02:49:37;6.70;;;4.40;;
13443;SDS011;6794;59.218;18.218;2022-12-10T02:52:08;8.55;;;5.68;;
13443;SDS011;6794;59.218;18.218;2022-12-10T02:54:36;5.57;;;4.50;;
13443;SDS011;6794;59.218;18.218;2022-12-10T02:57:45;6.43;;;4.63;;
13443;SDS011;6794;59.218;18.218;2022-12-10T03:02:26;6.57;;;5.17;;
13443;SDS011;6794;59.218;18.218;2022-12-10T03:05:39;6.97;;;4.60;;
13443;SDS011;6794;59.218;18.218;2022-12-10T03:07:49;6.43;;;4.15;;
13443;SDS011;6794;59.218;18.218;2022-12-10T03:12:52;5.73;;;4.60;;
13443;SDS011;6794;59.218;18.218;2022-12-10T03:15:20;5.32;;;4.30;;
13443;SDS011;6794;59.218;18.218;2022-12-10T03:17:47;5.17;;;4.40;;
13443;SDS011;6794;59.218;18.218;2022-12-10T03:20:14;5.93;;;3.72;;
13443;SDS011;6794;59.218;18.218;2022-12-10T03:22:42;5.70;;;3.60;;
13443;SDS011;6794;59.218;18.218;2022-12-10T03:25:09;4.73;;;4.00;;
13443;SDS011;6794;59.218;18.218;2022-12-10T03:27:36;6.43;;;3.80;;
13443;SDS011;6794;59.218;18.218;2022-12-10T03:30:02;6.47;;;4.07;;
13443;SDS011;6794;59.218;18.218;2022-12-10T03:32:29;6.00;;;3.83;;
13443;SDS011;6794;59.218;18.218;2022-12-10T03:34:56;5.60;;;4.32;;
13443;SDS011;6794;59.218;18.218;2022-12-10T03:37:22;5.20;;;3.77;;
13443;SDS011;6794;59.218;18.218;2022-12-10T03:39:49;7.00;;;5.20;;
13443;SDS011;6794;59.218;18.218;2022-12-10T03:42:15;6.73;;;3.70;;
13443;SDS011;6794;59.218;18.218;2022-12-10T03:44:41;7.93;;;3.92;;
13443;SDS011;6794;59.218;18.218;2022-12-10T03:47:08;5.27;;;4.10;;
13443;SDS011;6794;59.218;18.218;2022-12-10T03:49:35;6.97;;;4.73;;
13443;SDS011;6794;59.218;18.218;2022-12-10T03:52:01;4.40;;;3.57;;
13443;SDS011;6794;59.218;18.218;2022-12-10T03:54:27;5.53;;;4.30;;
13443;SDS011;6794;59.218;18.218;2022-12-10T03:56:53;5.55;;;3.47;;
13443;SDS011;6794;59.218;18.218;2022-12-10T03:59:19;5.10;;;3.70;;
13443;SDS011;6794;59.218;18.218;2022-12-10T04:01:45;6.57;;;4.13;;
13443;SDS011;6794;59.218;18.218;2022-12-10T04:04:12;6.83;;;4.17;;
13443;SDS011;6794;59.218;18.218;2022-12-10T04:06:38;4.70;;;4.03;;
13443;SDS011;6794;59.218;18.218;2022-12-10T04:09:05;4.83;;;3.50;;
13443;SDS011;6794;59.218;18.218;2022-12-10T04:11:31;6.63;;;3.90;;
13443;SDS011;6794;59.218;18.218;2022-12-10T04:13:57;5.50;;;4.20;;
13443;SDS011;6794;59.218;18.218;2022-12-10T04:16:42;6.43;;;4.43;;
13443;SDS011;6794;59.218;18.218;2022-12-10T04:19:09;6.18;;;5.10;;
13443;SDS011;6794;59.218;18.218;2022-12-10T04:21:37;5.83;;;3.70;;
13443;SDS011;6794;59.218;18.218;2022-12-10T04:24:23;3.87;;;3.20;;
13443;SDS011;6794;59.218;18.218;2022-12-10T04:27:09;4.97;;;3.67;;
13443;SDS011;6794;59.218;18.218;2022-12-10T04:29:36;3.47;;;2.73;;
13443;SDS011;6794;59.218;18.218;2022-12-10T04:32:02;5.17;;;3.00;;
13443;SDS011;6794;59.218;18.218;2022-12-10T04:34:28;4.13;;;3.00;;
13443;SDS011;6794;59.218;18.218;2022-12-10T04:36:54;4.13;;;3.27;;
13443;SDS011;6794;59.218;18.218;2022-12-10T04:39:20;3.03;;;2.73;;
13443;SDS011;6794;59.218;18.218;2022-12-10T04:41:47;5.33;;;3.10;;
13443;SDS011;6794;59.218;18.218;2022-12-10T04:44:13;3.57;;;2.90;;
13443;SDS011;6794;59.218;18.218;2022-12-10T04:46:39;3.80;;;3.00;;
13443;SDS011;6794;59.218;18.218;2022-12-10T04:49:05;3.67;;;2.80;;
13443;SDS011;6794;59.218;18.218;2022-12-10T04:51:32;3.00;;;2.50;;
13443;SDS011;6794;59.218;18.218;2022-12-10T04:53:58;3.40;;;2.57;;
13443;SDS011;6794;59.218;18.218;2022-12-10T04:56:24;3.47;;;2.93;;
13443;SDS011;6794;59.218;18.218;2022-12-10T04:58:50;3.63;;;2.50;;
13443;SDS011;6794;59.218;18.218;2022-12-10T05:01:16;2.60;;;2.40;;
13443;SDS011;6794;59.218;18.218;2022-12-10T05:03:46;3.75;;;3.45;;
13443;SDS011;6794;59.218;18.218;2022-12-10T05:06:13;3.00;;;2.70;;
13443;SDS011;6794;59.218;18.218;2022-12-10T05:08:39;3.47;;;2.60;;
13443;SDS011;6794;59.218;18.218;2022-12-10T05:11:10;3.10;;;2.80;;
13443;SDS011;6794;59.218;18.218;2022-12-10T05:13:37;3.67;;;2.67;;
13443;SDS011;6794;59.218;18.218;2022-12-10T05:16:04;3.20;;;2.43;;
13443;SDS011;6794;59.218;18.218;2022-12-10T05:18:30;3.20;;;2.90;;
13443;SDS011;6794;59.218;18.218;2022-12-10T05:21:00;3.00;;;2.60;;
13443;SDS011;6794;59.218;18.218;2022-12-10T05:23:26;2.90;;;2.43;;
13443;SDS011;6794;59.218;18.218;2022-12-10T05:26:12;3.03;;;2.60;;
13443;SDS011;6794;59.218;18.218;2022-12-10T05:28:39;2.53;;;2.33;;
13443;SDS011;6794;59.218;18.218;2022-12-10T05:31:11;2.23;;;2.03;;
13443;SDS011;6794;59.218;18.218;2022-12-10T05:33:37;2.80;;;2.43;;
13443;SDS011;6794;59.218;18.218;2022-12-10T05:36:03;2.60;;;2.40;;
13443;SDS011;6794;59.218;18.218;2022-12-10T05:38:30;4.67;;;2.63;;
13443;SDS011;6794;59.218;18.218;2022-12-10T05:41:00;4.47;;;3.77;;
13443;SDS011;6794;59.218;18.218;2022-12-10T05:43:27;5.03;;;3.83;;
13443;SDS011;6794;59.218;18.218;2022-12-10T05:45:53;3.90;;;3.43;;
13443;SDS011;6794;59.218;18.218;2022-12-10T05:48:19;3.43;;;2.70;;
13443;SDS011;6794;59.218;18.218;2022-12-10T05:50:45;3.80;;;3.03;;
13443;SDS011;6794;59.218;18.218;2022-12-10T05:53:11;4.10;;;3.03;;
13443;SDS011;6794;59.218;18.218;2022-12-10T05:55:39;3.90;;;3.10;;
13443;SDS011;6794;59.218;18.218;2022-12-10T05:58:05;4.43;;;3.30;;
13443;SDS011;6794;59.218;18.218;2022-12-10T06:00:31;4.67;;;3.50;;
13443;SDS011;6794;59.218;18.218;2022-12-10T06:02:57;2.93;;;2.63;;
13443;SDS011;6794;59.218;18.218;2022-12-10T06:05:23;3.00;;;2.70;;
13443;SDS011;6794;59.218;18.218;2022-12-10T06:07:49;2.77;;;2.40;;
13443;SDS011;6794;59.218;18.218;2022-12-10T06:10:15;3.30;;;2.40;;
13443;SDS011;6794;59.218;18.218;2022-12-10T06:12:41;2.40;;;2.20;;
13443;SDS011;6794;59.218;18.218;2022-12-10T06:15:07;2.67;;;2.33;;
13443;SDS011;6794;59.218;18.218;2022-12-10T06:17:33;2.27;;;2.07;;
13443;SDS011;6794;59.218;18.218;2022-12-10T06:20:01;2.43;;;2.20;;
13443;SDS011;6794;59.218;18.218;2022-12-10T06:22:27;3.07;;;2.00;;
13443;SDS011;6794;59.218;18.218;2022-12-10T06:24:53;2.60;;;1.90;;
13443;SDS011;6794;59.218;18.218;2022-12-10T06:27:19;3.10;;;2.80;;
13443;SDS011;6794;59.218;18.218;2022-12-10T06:29:45;2.57;;;2.10;;
13443;SDS011;6794;59.218;18.218;2022-12-10T06:32:11;4.05;;;3.45;;
13443;SDS011;6794;59.218;18.218;2022-12-10T06:34:37;3.90;;;2.40;;
13443;SDS011;6794;59.218;18.218;2022-12-10T06:37:03;4.30;;;2.53;;
13443;SDS011;6794;59.218;18.218;2022-12-10T06:39:29;2.63;;;2.37;;
13443;SDS011;6794;59.218;18.218;2022-12-10T06:41:55;4.07;;;2.57;;
13443;SDS011;6794;59.218;18.218;2022-12-10T06:44:21;4.07;;;3.40;;
13443;SDS011;6794;59.218;18.218;2022-12-10T06:46:47;3.27;;;2.70;;
13443;SDS011;6794;59.218;18.218;2022-12-10T06:49:13;3.50;;;2.83;;
13443;SDS011;6794;59.218;18.218;2022-12-10T06:51:39;3.10;;;2.70;;
13443;SDS011;6794;59.218;18.218;2022-12-10T06:54:05;3.43;;;3.00;;
13443;SDS011;6794;59.218;18.218;2022-12-10T06:56:31;4.00;;;3.20;;
13443;SDS011;6794;59.218;18.218;2022-12-10T06:58:57;2.60;;;2.37;;
13443;SDS011;6794;59.218;18.218;2022-12-10T07:01:24;3.80;;;3.13;;
13443;SDS011;6794;59.218;18.218;2022-12-10T07:03:51;5.57;;;3.70;;
13443;SDS011;6794;59.218;18.218;2022-12-10T07:06:18;3.43;;;2.83;;
13443;SDS011;6794;59.218;18.218;2022-12-10T07:08:45;4.23;;;3.10;;
13443;SDS011;6794;59.218;18.218;2022-12-10T07:11:13;3.63;;;3.13;;
13443;SDS011;6794;59.218;18.218;2022-12-10T07:13:40;4.30;;;3.27;;
13443;SDS011;6794;59.218;18.218;2022-12-10T07:16:39;3.97;;;3.40;;
13443;SDS011;6794;59.218;18.218;2022-12-10T07:18:59;4.17;;;3.43;;
13443;SDS011;6794;59.218;18.218;2022-12-10T07:21:27;4.40;;;3.87;;
13443;SDS011;6794;59.218;18.218;2022-12-10T07:23:54;4.37;;;3.37;;
13443;SDS011;6794;59.218;18.218;2022-12-10T07:26:22;5.10;;;3.43;;
13443;SDS011;6794;59.218;18.218;2022-12-10T07:28:49;5.67;;;3.70;;
13443;SDS011;6794;59.218;18.218;2022-12-10T07:31:15;5.37;;;4.30;;
13443;SDS011;6794;59.218;18.218;2022-12-10T07:33:41;5.00;;;3.87;;
13443;SDS011;6794;59.218;18.218;2022-12-10T07:36:10;4.03;;;3.20;;
13443;SDS011;6794;59.218;18.218;2022-12-10T07:38:37;4.43;;;3.30;;
13443;SDS011;6794;59.218;18.218;2022-12-10T07:41:03;4.27;;;3.47;;
13443;SDS011;6794;59.218;18.218;2022-12-10T07:43:30;5.20;;;4.30;;
13443;SDS011;6794;59.218;18.218;2022-12-10T07:45:56;5.40;;;3.47;;
13443;SDS011;6794;59.218;18.218;2022-12-10T07:48:28;6.05;;;3.88;;
13443;SDS011;6794;59.218;18.218;2022-12-10T07:50:57;6.97;;;4.80;;
13443;SDS011;6794;59.218;18.218;2022-12-10T07:53:23;4.27;;;3.00;;
13443;SDS011;6794;59.218;18.218;2022-12-10T07:55:49;4.43;;;3.75;;
13443;SDS011;6794;59.218;18.218;2022-12-10T07:58:16;4.60;;;3.92;;
13443;SDS011;6794;59.218;18.218;2022-12-10T08:00:42;5.27;;;3.33;;
13443;SDS011;6794;59.218;18.218;2022-12-10T08:03:08;5.10;;;3.60;;
13443;SDS011;6794;59.218;18.218;2022-12-10T08:05:34;3.93;;;3.27;;
13443;SDS011;6794;59.218;18.218;2022-12-10T08:07:59;4.87;;;4.30;;
13443;SDS011;6794;59.218;18.218;2022-12-10T08:10:25;3.93;;;3.53;;
13443;SDS011;6794;59.218;18.218;2022-12-10T08:12:51;4.37;;;3.70;;
13443;SDS011;6794;59.218;18.218;2022-12-10T08:15:18;3.30;;;3.00;;
13443;SDS011;6794;59.218;18.218;2022-12-10T08:17:44;4.47;;;3.10;;
13443;SDS011;6794;59.218;18.218;2022-12-10T08:20:10;4.80;;;4.23;;
13443;SDS011;6794;59.218;18.218;2022-12-10T08:22:36;4.57;;;3.47;;
13443;SDS011;6794;59.218;18.218;2022-12-10T08:25:02;4.23;;;3.90;;
13443;SDS011;6794;59.218;18.218;2022-12-10T08:27:28;6.50;;;5.23;;
13443;SDS011;6794;59.218;18.218;2022-12-10T08:29:54;6.43;;;3.70;;
13443;SDS011;6794;59.218;18.218;2022-12-10T08:32:20;4.33;;;3.33;;
13443;SDS011;6794;59.218;18.218;2022-12-10T08:34:46;4.80;;;3.53;;
13443;SDS011;6794;59.218;18.218;2022-12-10T08:37:13;3.93;;;3.37;;
13443;SDS011;6794;59.218;18.218;2022-12-10T08:39:39;3.93;;;3.30;;
13443;SDS011;6794;59.218;18.218;2022-12-10T08:42:05;4.50;;;3.60;;
13443;SDS011;6794;59.218;18.218;2022-12-10T08:44:31;4.43;;;3.53;;
13443;SDS011;6794;59.218;18.218;2022-12-10T08:46:57;4.57;;;3.53;;
13443;SDS011;6794;59.218;18.218;2022-12-10T08:49:23;3.63;;;3.23;;
13443;SDS011;6794;59.218;18.218;2022-12-10T08:51:49;6.03;;;3.90;;
13443;SDS011;6794;59.218;18.218;2022-12-10T08:54:15;9.20;;;5.33;;
13443;SDS011;6794;59.218;18.218;2022-12-10T08:56:41;8.07;;;5.20;;
13443;SDS011;6794;59.218;18.218;2022-12-10T08:59:07;3.63;;;3.20;;
13443;SDS011;6794;59.218;18.218;2022-12-10T09:01:33;7.30;;;4.80;;
13443;SDS011;6794;59.218;18.218;2022-12-10T09:03:59;9.00;;;4.60;;
13443;SDS011;6794;59.218;18.218;2022-12-10T09:06:26;4.83;;;3.30;;
13443;SDS011;6794;59.218;18.218;2022-12-10T09:08:53;5.63;;;3.60;;
13443;SDS011;6794;59.218;18.218;2022-12-10T09:11:29;9.83;;;6.33;;
13443;SDS011;6794;59.218;18.218;2022-12-10T09:13:56;5.47;;;4.03;;
13443;SDS011;6794;59.218;18.218;2022-12-10T09:16:26;7.87;;;5.70;;
13443;SDS011;6794;59.218;18.218;2022-12-10T09:18:53;6.00;;;3.63;;
13443;SDS011;6794;59.218;18.218;2022-12-10T09:21:19;7.70;;;4.37;;
13443;SDS011;6794;59.218;18.218;2022-12-10T09:23:45;10.50;;;5.60;;
13443;SDS011;6794;59.218;18.218;2022-12-10T09:26:13;6.75;;;4.95;;
13443;SDS011;6794;59.218;18.218;2022-12-10T09:28:39;6.95;;;4.60;;
13443;SDS011;6794;59.218;18.218;2022-12-10T09:31:06;5.00;;;4.00;;
13443;SDS011;6794;59.218;18.218;2022-12-10T09:33:33;7.03;;;4.43;;
13443;SDS011;6794;59.218;18.218;2022-12-10T09:35:59;4.00;;;2.93;;
13443;SDS011;6794;59.218;18.218;2022-12-10T09:38:25;8.00;;;4.30;;
13443;SDS011;6794;59.218;18.218;2022-12-10T09:51:21;4.60;;;3.70;;
13443;SDS011;6794;59.218;18.218;2022-12-10T09:53:47;5.43;;;3.87;;
13443;SDS011;6794;59.218;18.218;2022-12-10T09:56:17;4.27;;;3.53;;
13443;SDS011;6794;59.218;18.218;2022-12-10T09:58:45;5.57;;;4.00;;
13443;SDS011;6794;59.218;18.218;2022-12-10T10:01:12;6.03;;;3.70;;
13443;SDS011;6794;59.218;18.218;2022-12-10T10:03:41;4.87;;;3.50;;
13443;SDS011;6794;59.218;18.218;2022-12-10T10:06:09;5.10;;;3.50;;
13443;SDS011;6794;59.218;18.218;2022-12-10T10:11:09;5.10;;;3.80;;
13443;SDS011;6794;59.218;18.218;2022-12-10T10:13:38;4.57;;;3.50;;
13443;SDS011;6794;59.218;18.218;2022-12-10T10:16:24;8.77;;;6.17;;
13443;SDS011;6794;59.218;18.218;2022-12-10T10:18:53;5.93;;;4.20;;
13443;SDS011;6794;59.218;18.218;2022-12-10T10:21:21;7.40;;;4.33;;
13443;SDS011;6794;59.218;18.218;2022-12-10T10:23:47;7.13;;;4.40;;
13443;SDS011;6794;59.218;18.218;2022-12-10T10:26:14;6.67;;;4.80;;
13443;SDS011;6794;59.218;18.218;2022-12-10T10:28:40;4.47;;;3.50;;
13443;SDS011;6794;59.218;18.218;2022-12-10T10:31:20;7.13;;;4.60;;
13443;SDS011;6794;59.218;18.218;2022-12-10T10:33:49;7.07;;;3.70;;
13443;SDS011;6794;59.218;18.218;2022-12-10T10:36:22;5.37;;;4.23;;
13443;SDS011;6794;59.218;18.218;2022-12-10T10:38:48;3.83;;;3.43;;
13443;SDS011;6794;59.218;18.218;2022-12-10T10:41:14;4.77;;;3.77;;
13443;SDS011;6794;59.218;18.218;2022-12-10T10:43:41;5.77;;;4.17;;
13443;SDS011;6794;59.218;18.218;2022-12-10T10:46:22;6.00;;;4.00;;
13443;SDS011;6794;59.218;18.218;2022-12-10T10:48:49;5.10;;;3.60;;
13443;SDS011;6794;59.218;18.218;2022-12-10T10:51:17;6.30;;;4.00;;
13443;SDS011;6794;59.218;18.218;2022-12-10T10:53:49;5.30;;;4.47;;
13443;SDS011;6794;59.218;18.218;2022-12-10T10:58:56;4.03;;;3.47;;
13443;SDS011;6794;59.218;18.218;2022-12-10T11:01:24;7.77;;;4.20;;
13443;SDS011;6794;59.218;18.218;2022-12-10T11:03:55;4.60;;;3.60;;
13443;SDS011;6794;59.218;18.218;2022-12-10T11:06:22;5.97;;;4.80;;
13443;SDS011;6794;59.218;18.218;2022-12-10T11:08:49;5.00;;;3.73;;
13443;SDS011;6794;59.218;18.218;2022-12-10T11:11:18;6.20;;;4.43;;
13443;SDS011;6794;59.218;18.218;2022-12-10T11:13:45;8.30;;;4.83;;
13443;SDS011;6794;59.218;18.218;2022-12-10T11:16:12;7.00;;;4.90;;
13443;SDS011;6794;59.218;18.218;2022-12-10T11:19:04;6.20;;;3.67;;
13443;SDS011;6794;59.218;18.218;2022-12-10T11:21:31;6.10;;;4.37;;
13443;SDS011;6794;59.218;18.218;2022-12-10T11:23:58;4.87;;;3.57;;
13443;SDS011;6794;59.218;18.218;2022-12-10T11:31:31;5.90;;;3.90;;
13443;SDS011;6794;59.218;18.218;2022-12-10T11:44:16;4.27;;;3.70;;
13443;SDS011;6794;59.218;18.218;2022-12-10T11:47:05;5.00;;;3.70;;
13443;SDS011;6794;59.218;18.218;2022-12-10T11:49:39;7.40;;;4.20;;
13443;SDS011;6794;59.218;18.218;2022-12-10T11:52:33;7.80;;;4.97;;
13443;SDS011;6794;59.218;18.218;2022-12-10T12:00:15;4.97;;;3.70;;
13443;SDS011;6794;59.218;18.218;2022-12-10T12:02:47;7.57;;;4.87;;
13443;SDS011;6794;59.218;18.218;2022-12-10T12:07:58;5.43;;;3.67;;
13443;SDS011;6794;59.218;18.218;2022-12-10T12:10:39;5.80;;;4.13;;
13443;SDS011;6794;59.218;18.218;2022-12-10T12:13:14;5.70;;;4.20;;
13443;SDS011;6794;59.218;18.218;2022-12-10T12:15:45;4.83;;;3.80;;
13443;SDS011;6794;59.218;18.218;2022-12-10T12:18:20;5.33;;;4.07;;
13443;SDS011;6794;59.218;18.218;2022-12-10T12:20:52;5.17;;;3.87;;
13443;SDS011;6794;59.218;18.218;2022-12-10T12:23:24;5.10;;;4.50;;
13443;SDS011;6794;59.218;18.218;2022-12-10T12:25:53;6.63;;;3.83;;
13443;SDS011;6794;59.218;18.218;2022-12-10T12:28:22;4.80;;;3.33;;
13443;SDS011;6794;59.218;18.218;2022-12-10T12:30:52;6.93;;;4.37;;
13443;SDS011;6794;59.218;18.218;2022-12-10T12:33:28;4.47;;;2.80;;
13443;SDS011;6794;59.218;18.218;2022-12-10T12:36:03;4.73;;;3.50;;
13443;SDS011;6794;59.218;18.218;2022-12-10T12:38:39;4.67;;;4.07;;
13443;SDS011;6794;59.218;18.218;2022-12-10T12:41:13;6.60;;;4.23;;
13443;SDS011;6794;59.218;18.218;2022-12-10T12:43:48;4.37;;;3.80;;
13443;SDS011;6794;59.218;18.218;2022-12-10T12:46:18;6.10;;;4.60;;
13443;SDS011;6794;59.218;18.218;2022-12-10T12:48:53;6.97;;;4.03;;
13443;SDS011;6794;59.218;18.218;2022-12-10T12:51:26;6.63;;;3.70;;
13443;SDS011;6794;59.218;18.218;2022-12-10T12:53:53;6.40;;;4.37;;
13443;SDS011;6794;59.218;18.218;2022-12-10T12:59:02;5.83;;;3.50;;
13443;SDS011;6794;59.218;18.218;2022-12-10T13:01:34;4.87;;;3.33;;
13443;SDS011;6794;59.218;18.218;2022-12-10T13:04:02;5.00;;;3.60;;
13443;SDS011;6794;59.218;18.218;2022-12-10T13:06:29;5.47;;;3.97;;
13443;SDS011;6794;59.218;18.218;2022-12-10T13:11:40;4.97;;;3.07;;
13443;SDS011;6794;59.218;18.218;2022-12-10T13:16:34;6.73;;;3.63;;
13443;SDS011;6794;59.218;18.218;2022-12-10T13:32:24;4.33;;;2.90;;
13443;SDS011;6794;59.218;18.218;2022-12-10T13:37:35;4.33;;;3.10;;
13443;SDS011;6794;59.218;18.218;2022-12-10T13:42:36;3.93;;;3.10;;
13443;SDS011;6794;59.218;18.218;2022-12-10T13:47:54;3.90;;;3.10;;
13443;SDS011;6794;59.218;18.218;2022-12-10T13:53:03;5.20;;;4.23;;
13443;SDS011;6794;59.218;18.218;2022-12-10T13:55:38;3.67;;;2.90;;
13443;SDS011;6794;59.218;18.218;2022-12-10T13:58:17;3.53;;;2.87;;
13443;SDS011;6794;59.218;18.218;2022-12-10T14:00:52;3.03;;;2.70;;
13443;SDS011;6794;59.218;18.218;2022-12-10T14:08:29;3.17;;;2.73;;
13443;SDS011;6794;59.218;18.218;2022-12-10T14:10:57;3.63;;;2.30;;
13443;SDS011;6794;59.218;18.218;2022-12-10T14:13:27;3.60;;;2.63;;
13443;SDS011;6794;59.218;18.218;2022-12-10T14:15:57;3.97;;;2.77;;
13443;SDS011;6794;59.218;18.218;2022-12-10T14:18:24;3.53;;;2.73;;
13443;SDS011;6794;59.218;18.218;2022-12-10T14:20:53;4.50;;;3.00;;
13443;SDS011;6794;59.218;18.218;2022-12-10T14:23:22;3.37;;;2.40;;
13443;SDS011;6794;59.218;18.218;2022-12-10T14:25:57;3.20;;;2.50;;
13443;SDS011;6794;59.218;18.218;2022-12-10T14:28:23;3.53;;;2.80;;
13443;SDS011;6794;59.218;18.218;2022-12-10T14:30:49;3.53;;;3.07;;
13443;SDS011;6794;59.218;18.218;2022-12-10T14:33:17;3.40;;;2.47;;
13443;SDS011;6794;59.218;18.218;2022-12-10T14:35:50;3.17;;;2.87;;
13443;SDS011;6794;59.218;18.218;2022-12-10T14:38:21;3.63;;;3.03;;
13443;SDS011;6794;59.218;18.218;2022-12-10T14:40:49;3.10;;;2.80;;
13443;SDS011;6794;59.218;18.218;2022-12-10T14:43:20;3.43;;;2.17;;
13443;SDS011;6794;59.218;18.218;2022-12-10T14:45:48;2.90;;;2.60;;
13443;SDS011;6794;59.218;18.218;2022-12-10T14:48:16;4.53;;;2.43;;
13443;SDS011;6794;59.218;18.218;2022-12-10T14:50:42;7.40;;;2.60;;
13443;SDS011;6794;59.218;18.218;2022-12-10T14:53:16;3.00;;;2.67;;
13443;SDS011;6794;59.218;18.218;2022-12-10T14:55:46;4.37;;;3.00;;
13443;SDS011;6794;59.218;18.218;2022-12-10T14:58:17;5.20;;;2.53;;
13443;SDS011;6794;59.218;18.218;2022-12-10T15:00:44;3.40;;;2.50;;
13443;SDS011;6794;59.218;18.218;2022-12-10T15:03:11;2.40;;;2.13;;
13443;SDS011;6794;59.218;18.218;2022-12-10T15:05:43;4.30;;;2.57;;
13443;SDS011;6794;59.218;18.218;2022-12-10T15:08:19;3.10;;;2.80;;
13443;SDS011;6794;59.218;18.218;2022-12-10T15:10:46;3.13;;;2.33;;
13443;SDS011;6794;59.218;18.218;2022-12-10T15:13:19;3.47;;;2.33;;
13443;SDS011;6794;59.218;18.218;2022-12-10T15:15:50;3.97;;;2.80;;
13443;SDS011;6794;59.218;18.218;2022-12-10T15:18:18;3.75;;;2.97;;
13443;SDS011;6794;59.218;18.218;2022-12-10T15:20:52;4.37;;;3.00;;
13443;SDS011;6794;59.218;18.218;2022-12-10T15:25:46;3.57;;;2.23;;
13443;SDS011;6794;59.218;18.218;2022-12-10T15:28:28;8.13;;;3.30;;
13443;SDS011;6794;59.218;18.218;2022-12-10T15:30:55;9.52;;;5.85;;
13443;SDS011;6794;59.218;18.218;2022-12-10T15:33:27;20.17;;;9.53;;
13443;SDS011;6794;59.218;18.218;2022-12-10T15:35:56;6.60;;;4.77;;
13443;SDS011;6794;59.218;18.218;2022-12-10T15:38:24;12.80;;;6.27;;
13443;SDS011;6794;59.218;18.218;2022-12-10T15:40:50;8.43;;;4.43;;
13443;SDS011;6794;59.218;18.218;2022-12-10T15:43:27;4.43;;;2.90;;
13443;SDS011;6794;59.218;18.218;2022-12-10T15:45:57;4.57;;;3.07;;
13443;SDS011;6794;59.218;18.218;2022-12-10T15:48:24;5.93;;;3.00;;
13443;SDS011;6794;59.218;18.218;2022-12-10T15:50:55;4.83;;;2.47;;
13443;SDS011;6794;59.218;18.218;2022-12-10T15:53:27;2.70;;;2.30;;
13443;SDS011;6794;59.218;18.218;2022-12-10T15:55:53;3.30;;;1.97;;
13443;SDS011;6794;59.218;18.218;2022-12-10T15:58:19;4.17;;;2.20;;
13443;SDS011;6794;59.218;18.218;2022-12-10T16:00:45;3.67;;;2.60;;
13443;SDS011;6794;59.218;18.218;2022-12-10T16:03:13;3.30;;;3.00;;
13443;SDS011;6794;59.218;18.218;2022-12-10T16:05:40;3.70;;;2.17;;
13443;SDS011;6794;59.218;18.218;2022-12-10T16:08:17;2.67;;;2.23;;
13443;SDS011;6794;59.218;18.218;2022-12-10T16:10:44;5.63;;;3.17;;
13443;SDS011;6794;59.218;18.218;2022-12-10T16:13:18;4.77;;;3.50;;
13443;SDS011;6794;59.218;18.218;2022-12-10T16:15:49;3.67;;;2.40;;
13443;SDS011;6794;59.218;18.218;2022-12-10T16:18:16;3.10;;;2.80;;
13443;SDS011;6794;59.218;18.218;2022-12-10T16:20:42;3.80;;;2.30;;
13443;SDS011;6794;59.218;18.218;2022-12-10T16:23:08;3.40;;;2.50;;
13443;SDS011;6794;59.218;18.218;2022-12-10T16:25:34;3.83;;;2.40;;
13443;SDS011;6794;59.218;18.218;2022-12-10T16:28:01;4.10;;;3.00;;
13443;SDS011;6794;59.218;18.218;2022-12-10T16:30:35;6.17;;;3.63;;